createdAt,value
2019-02-18T00:00:50.428Z,19.43
2019-02-18T00:03:18.960Z,18.87
2019-02-18T00:05:47.163Z,19.33
2019-02-18T00:08:15.298Z,17.73
2019-02-18T00:10:43.381Z,18.37
2019-02-18T00:13:11.499Z,19.17
2019-02-18T00:15:39.649Z,19.67
2019-02-18T00:18:07.798Z,19.17
2019-02-18T00:20:36.133Z,18.83
2019-02-18T00:23:04.635Z,18.90
2019-02-18T00:25:32.702Z,18.00
2019-02-18T00:28:00.820Z,17.97
2019-02-18T00:30:28.927Z,18.20
2019-02-18T00:32:57.171Z,18.93
2019-02-18T00:35:25.336Z,18.87
2019-02-18T00:37:53.412Z,18.97
2019-02-18T00:40:22.097Z,18.73
2019-02-18T00:42:50.539Z,19.13
2019-02-18T00:45:18.721Z,18.90
2019-02-18T00:47:48.102Z,18.27
2019-02-18T00:50:16.434Z,18.23
2019-02-18T00:52:44.891Z,18.43
2019-02-18T00:55:12.937Z,18.87
2019-02-18T00:57:41.013Z,18.23
2019-02-18T01:00:11.070Z,18.33
2019-02-18T01:02:39.532Z,17.03
2019-02-18T01:05:08.209Z,18.70
2019-02-18T01:07:36.553Z,18.57
2019-02-18T01:10:05.886Z,16.33
2019-02-18T01:12:33.977Z,16.43
2019-02-18T01:15:04.687Z,18.33
2019-02-18T01:17:33.030Z,18.43
2019-02-18T01:20:01.158Z,16.90
2019-02-18T01:22:29.454Z,18.50
2019-02-18T01:24:57.546Z,18.83
2019-02-18T01:27:26.015Z,18.17
2019-02-18T01:29:54.170Z,17.90
2019-02-18T01:32:22.362Z,18.43
2019-02-18T01:34:50.488Z,17.37
2019-02-18T01:37:18.544Z,18.87
2019-02-18T01:39:46.649Z,16.67
2019-02-18T01:42:16.074Z,17.70
2019-02-18T01:44:44.211Z,17.17
2019-02-18T01:47:12.405Z,18.20
2019-02-18T01:49:41.123Z,18.00
2019-02-18T01:52:09.228Z,17.33
2019-02-18T01:54:38.511Z,19.33
2019-02-18T01:57:06.615Z,19.37
2019-02-18T01:59:34.670Z,19.53
2019-02-18T02:02:02.779Z,18.33
2019-02-18T02:04:30.983Z,19.50
2019-02-18T02:06:59.314Z,18.00
2019-02-18T02:09:27.952Z,19.50
2019-02-18T02:11:56.175Z,19.60
2019-02-18T02:14:24.243Z,19.40
2019-02-18T02:16:52.593Z,18.47
2019-02-18T02:19:20.922Z,17.90
2019-02-18T02:21:49.001Z,17.77
2019-02-18T02:24:17.459Z,17.40
2019-02-18T02:26:45.738Z,18.17
2019-02-18T02:29:13.843Z,18.10
2019-02-18T02:31:42.352Z,18.80
2019-02-18T02:34:11.400Z,17.93
2019-02-18T02:36:39.560Z,18.20
2019-02-18T02:39:07.994Z,17.43
2019-02-18T02:41:36.175Z,18.07
2019-02-18T02:44:04.314Z,17.67
2019-02-18T02:46:32.436Z,17.70
2019-02-18T02:49:01.661Z,17.67
2019-02-18T02:51:30.100Z,17.33
2019-02-18T02:53:58.522Z,16.40
2019-02-18T02:56:26.935Z,18.13
2019-02-18T02:58:55.102Z,17.67
2019-02-18T03:01:23.199Z,17.20
2019-02-18T03:03:51.494Z,17.87
2019-02-18T03:06:19.908Z,18.13
2019-02-18T03:08:48.103Z,17.30
2019-02-18T03:11:16.197Z,17.13
2019-02-18T03:13:44.273Z,16.40
2019-02-18T03:16:12.442Z,17.70
2019-02-18T03:18:40.806Z,17.87
2019-02-18T03:21:09.032Z,17.47
2019-02-18T03:23:37.144Z,18.53
2019-02-18T03:26:05.574Z,16.70
2019-02-18T03:29:29.848Z,17.03
2019-02-18T03:31:58.226Z,17.10
2019-02-18T03:34:40.762Z,17.33
2019-02-18T03:37:08.965Z,18.17
2019-02-18T03:39:37.154Z,18.30
2019-02-18T03:42:05.243Z,17.70
2019-02-18T03:44:33.447Z,17.50
2019-02-18T03:47:01.832Z,18.00
2019-02-18T03:49:29.899Z,18.20
2019-02-18T03:51:58.297Z,17.17
2019-02-18T03:54:26.455Z,18.17
2019-02-18T03:56:54.633Z,18.03
2019-02-18T03:59:22.822Z,17.90
2019-02-18T04:01:51.034Z,17.57
2019-02-18T04:04:19.153Z,17.40
2019-02-18T04:06:47.396Z,17.47
2019-02-18T04:09:15.498Z,17.43
2019-02-18T04:11:43.629Z,18.33
2019-02-18T04:14:11.808Z,18.73
2019-02-18T04:16:40.035Z,18.13
2019-02-18T04:19:08.225Z,18.30
2019-02-18T04:21:36.366Z,20.07
2019-02-18T04:24:04.476Z,19.67
2019-02-18T04:26:32.543Z,17.80
2019-02-18T04:29:00.769Z,19.17
2019-02-18T04:31:29.102Z,18.33
2019-02-18T04:33:57.221Z,17.27
2019-02-18T04:36:25.428Z,17.53
2019-02-18T04:38:54.387Z,17.67
2019-02-18T04:41:22.786Z,17.93
2019-02-18T04:43:51.178Z,17.73
2019-02-18T04:46:19.357Z,17.37
2019-02-18T04:48:47.472Z,17.93
2019-02-18T04:51:15.994Z,17.23
2019-02-18T04:53:44.077Z,17.43
2019-02-18T04:56:12.323Z,16.70
2019-02-18T04:58:40.485Z,17.80
2019-02-18T05:01:08.838Z,17.73
2019-02-18T05:03:36.931Z,17.47
2019-02-18T05:06:05.027Z,17.37
2019-02-18T05:08:33.525Z,16.67
2019-02-18T05:11:02.218Z,17.90
2019-02-18T05:13:30.292Z,16.07
2019-02-18T05:15:58.524Z,17.50
2019-02-18T05:18:26.701Z,17.33
2019-02-18T05:20:55.295Z,17.97
2019-02-18T05:23:23.484Z,18.13
2019-02-18T05:25:51.625Z,17.60
2019-02-18T05:28:19.774Z,17.53
2019-02-18T05:30:47.990Z,17.57
2019-02-18T05:33:16.223Z,17.97
2019-02-18T05:35:44.341Z,16.80
2019-02-18T05:38:12.675Z,18.10
2019-02-18T05:40:40.750Z,19.00
2019-02-18T05:43:09.158Z,17.03
2019-02-18T05:45:37.391Z,18.97
2019-02-18T05:48:05.470Z,17.57
2019-02-18T05:50:33.581Z,18.37
2019-02-18T05:53:02.541Z,17.63
2019-02-18T05:55:31.156Z,18.10
2019-02-18T05:57:59.810Z,16.87
2019-02-18T06:00:29.479Z,16.67
2019-02-18T06:02:58.153Z,17.20
2019-02-18T06:05:26.563Z,17.13
2019-02-18T06:07:54.677Z,16.73
2019-02-18T06:10:22.828Z,17.23
2019-02-18T06:12:51.334Z,16.70
2019-02-18T06:15:19.672Z,16.57
2019-02-18T06:17:47.788Z,16.73
2019-02-18T06:20:16.006Z,16.77
2019-02-18T06:22:44.161Z,17.50
2019-02-18T06:25:12.538Z,16.73
2019-02-18T06:27:40.765Z,16.03
2019-02-18T06:30:09.095Z,17.37
2019-02-18T06:32:37.373Z,17.23
2019-02-18T06:35:05.953Z,17.47
2019-02-18T06:37:34.410Z,17.33
2019-02-18T06:40:02.795Z,17.77
2019-02-18T06:42:30.908Z,16.90
2019-02-18T06:45:20.388Z,17.90
2019-02-18T06:47:48.562Z,18.27
2019-02-18T06:50:17.094Z,18.60
2019-02-18T06:52:45.189Z,17.60
2019-02-18T06:55:13.373Z,18.50
2019-02-18T06:58:04.678Z,17.07
2019-02-18T07:00:44.824Z,16.73
2019-02-18T07:03:21.362Z,16.77
2019-02-18T07:05:57.063Z,16.23
2019-02-18T07:08:43.429Z,17.03
2019-02-18T07:11:16.155Z,16.43
2019-02-18T07:13:44.356Z,17.50
2019-02-18T07:16:12.407Z,16.97
2019-02-18T07:18:40.712Z,16.87
2019-02-18T07:21:08.795Z,16.63
2019-02-18T07:23:37.043Z,17.37
2019-02-18T07:26:05.282Z,16.77
2019-02-18T07:28:33.466Z,17.33
2019-02-18T07:31:01.922Z,17.17
2019-02-18T07:33:30.071Z,18.40
2019-02-18T07:35:58.207Z,17.20
2019-02-18T07:38:26.254Z,18.53
2019-02-18T07:40:54.502Z,18.30
2019-02-18T07:43:23.233Z,16.33
2019-02-18T07:45:51.687Z,16.93
2019-02-18T07:48:19.968Z,18.00
2019-02-18T07:50:48.156Z,17.10
2019-02-18T07:53:16.551Z,16.73
2019-02-18T07:55:44.788Z,16.90
2019-02-18T07:58:13.159Z,17.87
2019-02-18T08:00:41.279Z,16.60
2019-02-18T08:03:09.444Z,16.10
2019-02-18T08:05:37.837Z,16.03
2019-02-18T08:08:05.952Z,17.57
2019-02-18T08:10:34.149Z,15.97
2019-02-18T08:13:02.306Z,16.07
2019-02-18T08:15:30.400Z,16.47
2019-02-18T08:17:58.476Z,16.67
2019-02-18T08:20:26.942Z,16.57
2019-02-18T08:22:55.054Z,16.27
2019-02-18T08:25:23.177Z,16.33
2019-02-18T08:27:51.481Z,16.93
2019-02-18T08:30:19.605Z,16.03
2019-02-18T08:32:47.690Z,15.90
2019-02-18T08:35:16.393Z,14.23
2019-02-18T08:37:44.596Z,14.70
2019-02-18T08:40:21.706Z,15.17
2019-02-18T08:42:42.659Z,15.00
2019-02-18T08:45:15.329Z,14.97
2019-02-18T08:47:43.426Z,16.07
2019-02-18T08:50:11.788Z,14.80
2019-02-18T08:52:39.982Z,15.77
2019-02-18T08:55:10.712Z,14.23
2019-02-18T08:57:38.797Z,14.40
2019-02-18T09:00:13.650Z,15.23
2019-02-18T09:02:42.099Z,14.63
2019-02-18T09:05:10.432Z,15.13
2019-02-18T09:07:40.287Z,14.27
2019-02-18T09:10:10.042Z,14.83
2019-02-18T09:12:38.128Z,14.60
2019-02-18T09:15:07.436Z,13.47
2019-02-18T09:17:36.028Z,15.07
2019-02-18T09:20:06.395Z,13.87
2019-02-18T09:22:53.881Z,14.23
2019-02-18T09:25:44.048Z,14.47
2019-02-18T09:28:13.747Z,14.13
2019-02-18T09:30:44.568Z,14.50
2019-02-18T09:33:13.032Z,14.73
2019-02-18T09:35:41.195Z,14.37
2019-02-18T09:38:09.273Z,14.83
2019-02-18T09:40:45.117Z,14.60
2019-02-18T09:43:07.374Z,13.53
2019-02-18T09:45:35.484Z,13.60
2019-02-18T09:48:05.449Z,12.77
2019-02-18T09:50:33.716Z,14.20
2019-02-18T09:53:02.986Z,12.83
2019-02-18T09:55:31.580Z,13.07
2019-02-18T09:57:59.999Z,12.17
2019-02-18T10:00:28.281Z,11.87
2019-02-18T10:03:04.812Z,12.44
2019-02-18T10:05:32.851Z,13.40
2019-02-18T10:08:01.223Z,11.97
2019-02-18T10:10:29.622Z,12.07
2019-02-18T10:12:59.606Z,13.00
2019-02-18T10:15:27.810Z,11.80
2019-02-18T10:17:56.300Z,12.00
2019-02-18T10:20:24.611Z,11.73
2019-02-18T10:22:52.821Z,12.43
2019-02-18T10:25:20.928Z,12.00
2019-02-18T10:27:50.835Z,12.33
2019-02-18T10:30:20.742Z,12.17
2019-02-18T10:32:49.006Z,13.47
2019-02-18T10:35:17.332Z,12.20
2019-02-18T10:37:54.667Z,11.70
2019-02-18T10:40:15.494Z,11.83
2019-02-18T10:42:43.793Z,13.03
2019-02-18T10:45:12.828Z,12.20
2019-02-18T10:47:40.990Z,12.80
2019-02-18T10:50:10.023Z,12.53
2019-02-18T10:52:38.329Z,12.93
2019-02-18T10:55:07.522Z,12.03
2019-02-18T10:57:35.970Z,12.97
2019-02-18T11:00:08.836Z,12.33
2019-02-18T11:02:37.198Z,12.77
2019-02-18T11:05:06.604Z,11.77
2019-02-18T11:07:34.841Z,12.33
2019-02-18T11:10:05.121Z,13.47
2019-02-18T11:12:33.546Z,11.77
2019-02-18T11:15:01.652Z,13.07
2019-02-18T11:17:38.684Z,12.83
2019-02-18T11:20:09.799Z,12.03
2019-02-18T11:22:38.140Z,12.40
2019-02-18T11:25:07.688Z,12.03
2019-02-18T11:27:37.566Z,12.20
2019-02-18T11:30:09.429Z,12.83
2019-02-18T11:32:37.805Z,11.57
2019-02-18T11:35:06.290Z,13.53
2019-02-18T11:37:34.356Z,11.70
2019-02-18T11:40:02.641Z,11.97
2019-02-18T11:42:30.758Z,12.33
2019-02-18T11:44:59.506Z,11.77
2019-02-18T11:47:28.223Z,11.30
2019-02-18T11:49:56.502Z,11.87
2019-02-18T11:52:24.592Z,12.53
2019-02-18T11:54:52.668Z,11.37
2019-02-18T11:57:20.806Z,11.27
2019-02-18T11:59:49.032Z,11.03
2019-02-18T12:02:17.416Z,11.47
2019-02-18T12:04:45.497Z,10.93
2019-02-18T12:07:13.895Z,11.03
2019-02-18T12:09:42.127Z,11.10
2019-02-18T12:12:10.299Z,11.03
2019-02-18T12:14:39.375Z,11.73
2019-02-18T12:17:07.443Z,10.47
2019-02-18T12:19:36.188Z,11.73
2019-02-18T12:22:04.970Z,11.53
2019-02-18T12:24:33.150Z,11.20
2019-02-18T12:27:01.235Z,11.17
2019-02-18T12:29:29.286Z,10.63
2019-02-18T12:31:58.001Z,10.73
2019-02-18T12:34:26.166Z,10.57
2019-02-18T12:36:54.746Z,11.23
2019-02-18T12:39:22.918Z,10.70
2019-02-18T12:41:51.314Z,11.60
2019-02-18T12:44:19.472Z,10.43
2019-02-18T12:46:47.863Z,10.93
2019-02-18T12:49:16.342Z,10.63
2019-02-18T12:51:45.298Z,10.00
2019-02-18T12:54:13.396Z,10.73
2019-02-18T12:56:41.828Z,10.90
2019-02-18T12:59:10.170Z,11.23
2019-02-18T13:01:39.104Z,11.00
2019-02-18T13:04:07.339Z,10.57
2019-02-18T13:06:35.569Z,10.90
2019-02-18T13:09:05.387Z,10.60
2019-02-18T13:11:33.981Z,9.80
2019-02-18T13:14:02.283Z,10.27
2019-02-18T13:16:31.767Z,11.10
2019-02-18T13:18:59.874Z,10.97
2019-02-18T13:21:28.547Z,10.33
2019-02-18T13:23:56.730Z,10.80
2019-02-18T13:26:25.094Z,9.57
2019-02-18T13:28:53.599Z,10.17
2019-02-18T13:31:22.159Z,9.47
2019-02-18T13:33:50.242Z,9.80
2019-02-18T13:36:19.953Z,9.90
2019-02-18T13:38:48.763Z,10.00
2019-02-18T13:41:17.973Z,10.33
2019-02-18T13:43:46.108Z,9.70
2019-02-18T13:46:14.356Z,9.17
2019-02-18T13:48:42.623Z,9.37
2019-02-18T13:51:11.174Z,9.97
2019-02-18T13:53:39.355Z,10.10
2019-02-18T13:56:07.931Z,9.33
2019-02-18T13:58:36.081Z,9.50
2019-02-18T14:01:05.605Z,9.77
2019-02-18T14:03:33.845Z,8.80
2019-02-18T14:06:02.112Z,9.77
2019-02-18T14:08:30.451Z,9.03
2019-02-18T14:10:58.528Z,9.67
2019-02-18T14:13:27.191Z,9.33
2019-02-18T14:15:55.837Z,8.90
2019-02-18T14:18:23.916Z,9.27
2019-02-18T14:20:52.395Z,9.00
2019-02-18T14:23:20.734Z,8.70
2019-02-18T14:25:48.990Z,9.23
2019-02-18T14:28:18.947Z,9.63
2019-02-18T14:30:47.179Z,8.77
2019-02-18T14:33:17.332Z,9.40
2019-02-18T14:35:46.031Z,9.27
2019-02-18T14:38:14.086Z,9.17
2019-02-18T14:40:42.319Z,8.83
2019-02-18T14:43:10.799Z,9.67
2019-02-18T14:45:39.004Z,10.77
2019-02-18T14:48:08.852Z,9.00
2019-02-18T14:50:36.952Z,8.80
2019-02-18T14:53:05.217Z,9.37
2019-02-18T14:55:33.501Z,9.43
2019-02-18T14:58:03.129Z,9.43
2019-02-18T15:00:31.328Z,9.93
2019-02-18T15:03:01.271Z,9.80
2019-02-18T15:05:29.466Z,9.33
2019-02-18T15:07:57.501Z,9.53
2019-02-18T15:10:25.950Z,9.93
2019-02-18T15:12:54.053Z,9.60
2019-02-18T15:15:22.122Z,9.73
2019-02-18T15:17:50.238Z,10.67
2019-02-18T15:20:18.811Z,9.37
2019-02-18T15:22:47.414Z,10.20
2019-02-18T15:25:15.977Z,9.30
2019-02-18T15:27:45.891Z,9.40
2019-02-18T15:30:15.151Z,9.57
2019-02-18T15:32:43.356Z,9.83
2019-02-18T15:35:11.534Z,9.57
2019-02-18T15:37:39.635Z,10.93
2019-02-18T15:40:08.552Z,11.17
2019-02-18T15:42:42.181Z,10.37
2019-02-18T15:45:07.361Z,10.97
2019-02-18T15:47:35.565Z,12.00
2019-02-18T15:50:04.179Z,10.87
2019-02-18T15:52:32.250Z,10.20
2019-02-18T15:55:00.961Z,10.27
2019-02-18T15:57:29.305Z,11.33
2019-02-18T15:59:57.745Z,11.23
2019-02-18T16:02:25.843Z,9.80
2019-02-18T16:04:54.179Z,10.87
2019-02-18T16:07:22.681Z,10.80
2019-02-18T16:09:50.764Z,10.80
2019-02-18T16:12:18.846Z,10.63
2019-02-18T16:14:47.102Z,11.10
2019-02-18T16:17:15.180Z,10.60
2019-02-18T16:19:43.342Z,10.83
2019-02-18T16:22:11.508Z,11.00
2019-02-18T16:24:40.015Z,10.63
2019-02-18T16:27:08.596Z,11.43
2019-02-18T16:29:36.702Z,11.00
2019-02-18T16:32:05.730Z,11.00
2019-02-18T16:34:34.206Z,11.63
2019-02-18T16:37:02.726Z,11.17
2019-02-18T16:39:30.826Z,11.50
2019-02-18T16:41:59.268Z,10.77
2019-02-18T16:44:27.444Z,11.53
2019-02-18T16:46:55.890Z,11.27
2019-02-18T16:49:23.955Z,11.77
2019-02-18T16:51:52.164Z,11.40
2019-02-18T16:54:20.854Z,11.07
2019-02-18T16:56:49.001Z,11.67
2019-02-18T16:59:17.066Z,11.40
2019-02-18T17:01:45.433Z,11.47
2019-02-18T17:04:13.533Z,11.27
2019-02-18T17:06:42.029Z,11.37
2019-02-18T17:09:13.544Z,12.10
2019-02-18T17:11:41.947Z,12.10
2019-02-18T17:14:10.182Z,11.33
2019-02-18T17:16:38.325Z,11.73
2019-02-18T17:19:06.382Z,12.10
2019-02-18T17:21:34.643Z,12.83
2019-02-18T17:24:02.720Z,11.80
2019-02-18T17:26:30.832Z,12.80
2019-02-18T17:28:58.937Z,13.97
2019-02-18T17:31:27.067Z,14.20
2019-02-18T17:33:55.317Z,13.50
2019-02-18T17:36:23.467Z,11.73
2019-02-18T17:38:51.562Z,13.00
2019-02-18T17:41:19.767Z,13.23
2019-02-18T17:43:48.577Z,13.97
2019-02-18T17:46:16.784Z,13.63
2019-02-18T17:48:44.884Z,12.90
2019-02-18T17:51:13.430Z,13.33
2019-02-18T17:53:41.509Z,13.80
2019-02-18T17:56:09.607Z,13.20
2019-02-18T17:58:37.767Z,12.97
2019-02-18T18:01:06.364Z,14.33
2019-02-18T18:03:34.517Z,14.60
2019-02-18T18:06:02.602Z,13.90
2019-02-18T18:08:30.728Z,14.87
2019-02-18T18:10:59.651Z,16.47
2019-02-18T18:13:27.768Z,16.50
2019-02-18T18:15:55.934Z,16.63
2019-02-18T18:18:24.142Z,15.37
2019-02-18T18:20:52.221Z,16.07
2019-02-18T18:23:20.359Z,16.37
2019-02-18T18:25:48.488Z,16.73
2019-02-18T18:28:16.970Z,17.30
2019-02-18T18:30:45.053Z,14.73
2019-02-18T18:33:13.212Z,15.13
2019-02-18T18:35:41.368Z,15.77
2019-02-18T18:38:09.492Z,15.87
2019-02-18T18:40:37.601Z,15.10
2019-02-18T18:43:05.767Z,15.00
2019-02-18T18:45:33.860Z,15.03
2019-02-18T18:48:02.057Z,16.57
2019-02-18T18:50:30.215Z,15.13
2019-02-18T18:52:58.438Z,14.53
2019-02-18T18:55:26.615Z,15.37
2019-02-18T18:57:55.254Z,15.13
2019-02-18T19:00:23.974Z,15.23
2019-02-18T19:02:52.243Z,15.33
2019-02-18T19:05:20.714Z,16.20
2019-02-18T19:07:48.886Z,15.70
2019-02-18T19:10:17.103Z,15.43
2019-02-18T19:12:45.325Z,15.63
2019-02-18T19:15:13.554Z,14.63
2019-02-18T19:17:41.957Z,15.73
2019-02-18T19:20:11.686Z,15.47
2019-02-18T19:22:39.891Z,15.33
2019-02-18T19:25:08.228Z,15.57
2019-02-18T19:27:36.337Z,15.23
2019-02-18T19:30:06.312Z,15.20
2019-02-18T19:32:34.407Z,15.63
2019-02-18T19:35:02.729Z,16.87
2019-02-18T19:37:30.864Z,15.33
2019-02-18T19:39:59.387Z,15.37
2019-02-18T19:42:27.460Z,15.37
2019-02-18T19:44:55.601Z,15.90
2019-02-18T19:47:23.698Z,16.33
2019-02-18T19:49:51.865Z,14.93
2019-02-18T19:52:20.070Z,15.47
2019-02-18T19:54:48.603Z,16.47
2019-02-18T19:57:16.786Z,16.97
2019-02-18T19:59:46.104Z,16.53
2019-02-18T20:02:14.276Z,21.00
2019-02-18T20:04:42.388Z,29.07
2019-02-18T20:07:10.909Z,24.77
2019-02-18T20:09:39.180Z,25.00
2019-02-18T20:12:07.327Z,23.03
2019-02-18T20:14:35.460Z,22.23
2019-02-18T20:17:03.837Z,20.67
2019-02-18T20:19:31.894Z,20.57
2019-02-18T20:22:00.528Z,21.17
2019-02-18T20:24:28.616Z,20.33
2019-02-18T20:26:56.966Z,21.50
2019-02-18T20:29:25.053Z,20.73
2019-02-18T20:31:53.215Z,18.47
2019-02-18T20:34:21.669Z,18.00
2019-02-18T20:36:49.820Z,17.97
2019-02-18T20:39:18.792Z,18.43
2019-02-18T20:41:47.959Z,17.10
2019-02-18T20:44:16.125Z,17.37
2019-02-18T20:46:44.254Z,17.10
2019-02-18T20:49:12.339Z,17.40
2019-02-18T20:51:40.500Z,17.30
2019-02-18T20:54:09.045Z,18.57
2019-02-18T20:56:37.158Z,18.43
2019-02-18T20:59:05.522Z,18.63
2019-02-18T21:01:33.640Z,16.57
2019-02-18T21:04:01.914Z,16.87
2019-02-18T21:06:30.023Z,17.67
2019-02-18T21:08:58.549Z,17.87
2019-02-18T21:11:26.609Z,17.43
2019-02-18T21:13:55.983Z,18.17
2019-02-18T21:16:25.658Z,18.27
2019-02-18T21:18:53.836Z,19.53
2019-02-18T21:21:21.993Z,17.40
2019-02-18T21:23:50.134Z,17.40
2019-02-18T21:26:18.189Z,17.57
2019-02-18T21:28:46.437Z,20.08
2019-02-18T21:31:14.507Z,18.77
2019-02-18T21:33:42.710Z,17.53
2019-02-18T21:36:10.815Z,18.47
2019-02-18T21:38:38.921Z,19.20
2019-02-18T21:41:07.361Z,17.73
2019-02-18T21:43:35.479Z,18.13
2019-02-18T21:46:03.582Z,18.40
2019-02-18T21:48:32.876Z,18.83
2019-02-18T21:51:00.931Z,19.13
2019-02-18T21:53:29.113Z,17.93
2019-02-18T21:55:57.523Z,18.60
2019-02-18T21:58:25.853Z,19.37
2019-02-18T22:00:53.871Z,19.13
2019-02-18T22:03:22.007Z,17.83
2019-02-18T22:05:50.247Z,17.83
2019-02-18T22:08:18.530Z,19.17
2019-02-18T22:10:46.608Z,18.77
2019-02-18T22:13:14.777Z,17.40
2019-02-18T22:15:42.942Z,17.87
2019-02-18T22:18:11.570Z,17.50
2019-02-18T22:20:39.637Z,18.10
2019-02-18T22:23:07.699Z,18.50
2019-02-18T22:25:35.836Z,17.60
2019-02-18T22:28:03.933Z,18.17
2019-02-18T22:30:32.678Z,18.00
2019-02-18T22:33:00.781Z,17.40
2019-02-18T22:35:29.961Z,17.13
2019-02-18T22:37:58.064Z,17.67
2019-02-18T22:40:26.121Z,17.53
2019-02-18T22:42:54.311Z,17.73
2019-02-18T22:45:24.161Z,17.80
2019-02-18T22:47:53.083Z,17.27
2019-02-18T22:50:21.123Z,16.83
2019-02-18T22:52:49.269Z,17.13
2019-02-18T22:55:17.482Z,17.47
2019-02-18T22:57:45.917Z,17.80
2019-02-18T23:01:02.292Z,17.60
2019-02-18T23:03:30.541Z,17.43
2019-02-18T23:05:58.870Z,16.93
2019-02-18T23:08:26.965Z,18.47
2019-02-18T23:10:55.320Z,18.07
2019-02-18T23:13:23.453Z,18.43
2019-02-18T23:15:51.525Z,17.17
2019-02-18T23:18:20.620Z,17.17
2019-02-18T23:20:48.683Z,17.43
2019-02-18T23:23:16.764Z,17.90
2019-02-18T23:25:44.859Z,17.70
2019-02-18T23:28:12.939Z,16.90
2019-02-18T23:30:41.101Z,16.70
2019-02-18T23:33:09.164Z,17.30
2019-02-18T23:35:38.913Z,17.83
2019-02-18T23:38:07.169Z,17.57
2019-02-18T23:40:35.456Z,17.80
2019-02-18T23:43:03.570Z,17.00
2019-02-18T23:45:31.746Z,17.10
2019-02-18T23:48:00.289Z,17.80
2019-02-18T23:50:28.380Z,16.07
2019-02-18T23:52:57.328Z,17.07
2019-02-18T23:55:26.193Z,17.77
2019-02-18T23:57:54.259Z,16.53
